Time;durP1;ratioP1;P1;durP2;ratioP2;P2;SDS_P1;SDS_P2;PMS_P1;PMS_P2;Temp;Humidity;BMP_temperature;BMP_pressure;BME280_temperature;BME280_humidity;BME280_pressure;Samples;Min_cycle;Max_cycle;Signal;HPM_P1;HPM_P2
2021/09/07 00:00:35;;;;;;;26.00;16.48;;;14.60;99.90;;;;;;5076423;28;20375;-70
2021/09/07 00:03:01;;;;;;;25.75;15.90;;;14.60;99.90;;;;;;5076329;28;20069;-70
2021/09/07 00:05:27;;;;;;;24.63;16.20;;;14.50;99.90;;;;;;5076322;28;20025;-70
2021/09/07 00:07:52;;;;;;;29.98;16.60;;;14.50;99.90;;;;;;5076280;28;20040;-70
2021/09/07 00:10:18;;;;;;;31.30;18.05;;;14.50;99.90;;;;;;5076285;28;20347;-70
2021/09/07 00:12:44;;;;;;;27.38;17.50;;;14.40;99.90;;;;;;5076206;28;20112;-70
2021/09/07 00:15:11;;;;;;;25.52;16.80;;;14.40;99.90;;;;;;5075917;28;20151;-70
2021/09/07 00:17:37;;;;;;;24.38;16.50;;;14.30;99.90;;;;;;5076088;28;20107;-70
2021/09/07 00:20:05;;;;;;;23.60;15.82;;;14.30;99.90;;;;;;5074645;28;20064;-70
2021/09/07 00:22:30;;;;;;;24.77;16.30;;;14.20;99.90;;;;;;5075319;28;20082;-70
2021/09/07 00:24:56;;;;;;;30.95;19.27;;;14.20;99.90;;;;;;5075420;28;20025;-70
2021/09/07 00:27:21;;;;;;;25.83;16.45;;;14.10;99.90;;;;;;5075916;28;20021;-69
2021/09/07 00:29:47;;;;;;;30.77;18.83;;;14.00;99.90;;;;;;5075596;28;20367;-69
2021/09/07 00:32:13;;;;;;;28.00;17.65;;;14.00;99.90;;;;;;5075835;28;20063;-69
2021/09/07 00:34:39;;;;;;;27.80;17.88;;;13.90;99.90;;;;;;5075789;28;20036;-69
2021/09/07 00:37:04;;;;;;;27.05;17.20;;;13.90;99.90;;;;;;5075712;28;20028;-69
2021/09/07 00:39:30;;;;;;;26.10;17.05;;;13.90;99.90;;;;;;5074156;28;20024;-69
2021/09/07 00:41:55;;;;;;;25.83;17.33;;;13.90;99.90;;;;;;5075294;28;20017;-68
2021/09/07 00:44:23;;;;;;;30.75;19.23;;;13.80;99.90;;;;;;5074152;28;20092;-68
2021/09/07 00:46:51;;;;;;;33.58;18.88;;;13.90;99.90;;;;;;5075261;28;20016;-68
2021/09/07 00:49:18;;;;;;;29.13;17.65;;;13.90;99.90;;;;;;5075202;28;20470;-69
2021/09/07 00:51:46;;;;;;;28.10;18.65;;;13.90;99.90;;;;;;5075415;28;20086;-70
2021/09/07 00:54:12;;;;;;;26.08;16.90;;;13.80;99.90;;;;;;5075103;28;20091;-70
2021/09/07 00:56:40;;;;;;;26.65;17.13;;;13.80;99.90;;;;;;5075341;28;20378;-69
2021/09/07 00:59:07;;;;;;;26.35;17.02;;;13.80;99.90;;;;;;5075302;28;20466;-70
2021/09/07 01:01:33;;;;;;;30.45;18.05;;;13.80;99.90;;;;;;5074581;28;20076;-70
2021/09/07 01:03:59;;;;;;;29.13;17.83;;;13.70;99.90;;;;;;5074039;28;20020;-70
2021/09/07 01:06:24;;;;;;;28.40;17.52;;;13.70;99.90;;;;;;5075129;28;20048;-69
2021/09/07 01:08:50;;;;;;;31.77;19.02;;;13.60;99.90;;;;;;5074555;28;20024;-69
2021/09/07 01:11:18;;;;;;;29.05;16.83;;;13.60;99.90;;;;;;5056530;28;20473;-69
2021/09/07 01:13:45;;;;;;;29.48;18.83;;;13.60;99.90;;;;;;5074701;28;20377;-70
2021/09/07 01:16:11;;;;;;;30.30;18.48;;;13.50;99.90;;;;;;5073547;28;20031;-70
2021/09/07 01:18:36;;;;;;;27.85;17.27;;;13.50;99.90;;;;;;5074906;28;20024;-69
2021/09/07 01:21:05;;;;;;;26.83;16.85;;;13.50;99.90;;;;;;5074499;28;20114;-70
2021/09/07 01:23:31;;;;;;;31.05;18.08;;;13.40;99.90;;;;;;5074267;28;20017;-69
2021/09/07 01:25:56;;;;;;;24.85;16.88;;;13.40;99.90;;;;;;5074492;28;20489;-70
2021/09/07 01:28:24;;;;;;;27.83;17.75;;;13.40;99.90;;;;;;5073607;28;20075;-69
2021/09/07 01:30:49;;;;;;;27.80;18.17;;;13.40;99.90;;;;;;5074706;28;20016;-70
2021/09/07 01:33:15;;;;;;;28.83;18.50;;;13.30;99.90;;;;;;5074347;28;20028;-69
2021/09/07 01:35:41;;;;;;;26.25;18.27;;;13.30;99.90;;;;;;5074621;28;20063;-69
2021/09/07 01:38:06;;;;;;;31.63;17.65;;;13.30;99.90;;;;;;5074276;28;20028;-70
2021/09/07 01:40:32;;;;;;;34.53;20.38;;;13.20;99.90;;;;;;5073091;28;20029;-70
2021/09/07 01:42:58;;;;;;;32.85;20.25;;;13.10;99.90;;;;;;5072935;28;20024;-70
2021/09/07 01:45:23;;;;;;;29.58;19.38;;;13.10;99.90;;;;;;5073267;28;20028;-70
2021/09/07 01:47:50;;;;;;;32.25;19.42;;;13.00;99.90;;;;;;5074396;28;20505;-69
2021/09/07 01:50:17;;;;;;;31.40;19.27;;;13.00;99.90;;;;;;5074366;28;20024;-70
2021/09/07 01:52:42;;;;;;;29.73;18.38;;;13.00;99.90;;;;;;5073680;28;20032;-69
2021/09/07 01:55:08;;;;;;;30.85;18.92;;;13.10;99.90;;;;;;5074042;28;20091;-69
2021/09/07 01:57:34;;;;;;;31.25;20.58;;;13.00;99.90;;;;;;5072810;28;20529;-69
2021/09/07 02:00:00;;;;;;;34.95;21.42;;;13.10;99.90;;;;;;5073968;28;20029;-70
2021/09/07 02:02:25;;;;;;;34.35;20.88;;;13.10;99.90;;;;;;5074146;28;20377;-70
2021/09/07 02:04:51;;;;;;;36.05;20.90;;;13.10;99.90;;;;;;5073639;28;20056;-70
2021/09/07 02:07:16;;;;;;;35.13;21.30;;;13.10;99.90;;;;;;5073897;28;20020;-70
2021/09/07 02:09:42;;;;;;;34.92;22.05;;;13.10;99.90;;;;;;5072683;28;20021;-69
2021/09/07 02:12:07;;;;;;;32.28;20.65;;;13.10;99.90;;;;;;5073842;28;20093;-70
2021/09/07 02:14:33;;;;;;;33.25;19.92;;;13.10;99.90;;;;;;5073539;28;20024;-71
2021/09/07 02:16:59;;;;;;;30.05;19.33;;;13.00;99.90;;;;;;5074010;28;20103;-69
2021/09/07 02:19:25;;;;;;;33.60;20.02;;;13.00;99.90;;;;;;5073714;28;20032;-70
2021/09/07 02:21:50;;;;;;;30.45;20.50;;;13.00;99.90;;;;;;5073280;28;20080;-69
2021/09/07 02:24:16;;;;;;;38.58;22.73;;;13.00;99.90;;;;;;5073998;28;20048;-70
2021/09/07 02:26:42;;;;;;;38.83;23.70;;;13.00;99.90;;;;;;5072952;28;20458;-70
2021/09/07 02:29:08;;;;;;;38.78;23.00;;;13.10;99.90;;;;;;5072761;28;20027;-69
2021/09/07 02:31:33;;;;;;;32.70;21.13;;;13.20;99.90;;;;;;5073316;28;20029;-69
2021/09/07 02:33:59;;;;;;;35.25;20.92;;;13.20;99.90;;;;;;5073888;28;20461;-69
2021/09/07 02:36:26;;;;;;;35.05;21.50;;;13.20;99.90;;;;;;5073856;28;20369;-69
2021/09/07 02:38:54;;;;;;;37.92;22.65;;;13.20;99.90;;;;;;5072047;28;20025;-70
2021/09/07 02:41:20;;;;;;;35.08;20.67;;;13.30;99.90;;;;;;5072010;28;20077;-69
2021/09/07 02:43:46;;;;;;;36.55;23.08;;;13.30;99.90;;;;;;5073536;28;20025;-70
2021/09/07 02:46:11;;;;;;;38.45;22.30;;;13.40;99.90;;;;;;5073219;28;20094;-70
2021/09/07 02:48:37;;;;;;;35.25;21.23;;;13.40;99.90;;;;;;5073747;28;20035;-70
2021/09/07 02:51:03;;;;;;;37.25;23.63;;;13.50;99.90;;;;;;5072303;28;20046;-70
2021/09/07 02:53:29;;;;;;;37.83;23.40;;;13.50;99.90;;;;;;5073709;28;20024;-70
2021/09/07 02:55:54;;;;;;;36.95;21.48;;;13.60;99.90;;;;;;5073431;28;20029;-70
2021/09/07 02:58:20;;;;;;;35.90;22.48;;;13.60;99.90;;;;;;5073684;28;20059;-70
2021/09/07 03:00:46;;;;;;;34.63;21.95;;;13.60;99.90;;;;;;5073383;28;20111;-70
2021/09/07 03:03:11;;;;;;;36.83;22.58;;;13.70;99.90;;;;;;5073320;28;20103;-69
2021/09/07 03:05:37;;;;;;;32.40;21.55;;;13.70;99.90;;;;;;5077300;28;20535;-70
2021/09/07 03:08:03;;;;;;;37.88;21.88;;;13.70;99.90;;;;;;5075600;28;20115;-69
2021/09/07 03:10:29;;;;;;;37.95;23.05;;;13.70;99.90;;;;;;5077356;28;20373;-69
2021/09/07 03:12:55;;;;;;;35.92;23.35;;;13.70;99.90;;;;;;5077317;28;20062;-71
2021/09/07 03:15:22;;;;;;;39.42;22.95;;;13.70;99.90;;;;;;5077286;28;20043;-70
2021/09/07 03:17:47;;;;;;;37.50;22.42;;;13.70;99.90;;;;;;5076951;28;20512;-70
2021/09/07 03:20:13;;;;;;;35.03;21.52;;;13.80;99.90;;;;;;5077198;28;20040;-70
2021/09/07 03:22:38;;;;;;;33.70;21.10;;;13.80;99.90;;;;;;5076404;28;20051;-70
2021/09/07 03:25:05;;;;;;;34.03;21.13;;;13.80;99.90;;;;;;5077056;28;20499;-70
2021/09/07 03:27:30;;;;;;;42.47;23.77;;;13.90;99.90;;;;;;5077083;28;20107;-71
2021/09/07 03:29:56;;;;;;;39.53;22.25;;;14.00;99.90;;;;;;5076435;28;20063;-71
2021/09/07 03:32:21;;;;;;;31.75;20.33;;;14.00;99.90;;;;;;5076978;28;20108;-70
2021/09/07 03:34:47;;;;;;;33.53;21.70;;;14.00;99.90;;;;;;5075487;28;20513;-71
2021/09/07 03:37:12;;;;;;;37.13;22.70;;;14.00;99.90;;;;;;5076872;28;20055;-70
2021/09/07 03:39:38;;;;;;;39.33;23.25;;;14.10;99.90;;;;;;5076861;28;20033;-71
2021/09/07 03:42:04;;;;;;;40.22;24.40;;;14.10;99.90;;;;;;5076461;28;20462;-71
2021/09/07 03:44:29;;;;;;;38.83;23.02;;;14.10;99.90;;;;;;5076735;28;20081;-70
2021/09/07 03:46:55;;;;;;;34.78;21.77;;;14.10;99.90;;;;;;5058194;28;20021;-70
2021/09/07 03:49:20;;;;;;;34.58;21.42;;;14.10;99.90;;;;;;5075489;28;20020;-70
2021/09/07 03:51:46;;;;;;;36.05;22.77;;;14.10;99.90;;;;;;5076332;28;20039;-71
2021/09/07 03:54:11;;;;;;;38.25;22.98;;;14.10;99.90;;;;;;5075184;28;20055;-70
2021/09/07 03:56:37;;;;;;;39.10;24.33;;;14.10;99.90;;;;;;5074741;28;20025;-70
2021/09/07 03:59:04;;;;;;;36.88;22.48;;;14.20;99.90;;;;;;5076457;28;20032;-71
2021/09/07 04:01:29;;;;;;;35.85;22.58;;;14.20;99.90;;;;;;5076352;28;20040;-71
2021/09/07 04:03:55;;;;;;;41.38;25.67;;;14.20;99.90;;;;;;5075863;28;20025;-71
2021/09/07 04:06:20;;;;;;;37.55;23.48;;;14.30;99.90;;;;;;5075111;28;20409;-70
2021/09/07 04:08:46;;;;;;;37.20;22.65;;;14.20;99.90;;;;;;5076321;28;20035;-70
2021/09/07 04:11:12;;;;;;;37.70;24.33;;;14.20;99.90;;;;;;5076214;28;20020;-70
2021/09/07 04:13:37;;;;;;;36.13;22.27;;;14.30;99.90;;;;;;5076197;28;20032;-71
2021/09/07 04:16:03;;;;;;;39.08;24.08;;;14.30;99.90;;;;;;5075523;28;20029;-70
2021/09/07 04:18:29;;;;;;;39.95;24.55;;;14.30;99.90;;;;;;5074307;28;20378;-70
2021/09/07 04:20:54;;;;;;;43.13;24.60;;;14.30;99.90;;;;;;5074096;28;20041;-70
2021/09/07 04:23:20;;;;;;;38.85;25.13;;;14.40;99.90;;;;;;5074514;28;20032;-71
2021/09/07 04:25:47;;;;;;;36.10;24.38;;;14.40;99.90;;;;;;5075989;28;20042;-70
2021/09/07 04:28:13;;;;;;;35.35;23.65;;;14.40;99.90;;;;;;5075938;28;20020;-70
2021/09/07 04:30:38;;;;;;;38.05;23.00;;;14.50;99.90;;;;;;5075899;28;20073;-70
2021/09/07 04:33:04;;;;;;;43.63;24.42;;;14.50;99.90;;;;;;5075836;28;20089;-71
2021/09/07 04:35:29;;;;;;;44.72;26.20;;;14.40;99.90;;;;;;5075801;28;20029;-70
2021/09/07 04:37:55;;;;;;;35.42;23.80;;;14.40;99.90;;;;;;5075753;28;20025;-71
2021/09/07 04:40:20;;;;;;;43.58;25.15;;;14.40;99.90;;;;;;5075683;28;20033;-70
2021/09/07 04:42:46;;;;;;;36.92;24.15;;;14.50;99.90;;;;;;5075565;28;20367;-70
2021/09/07 04:45:11;;;;;;;40.28;24.63;;;14.50;99.90;;;;;;5075021;28;20013;-70
2021/09/07 04:47:37;;;;;;;41.25;26.48;;;14.50;99.90;;;;;;5075529;28;20054;-70
2021/09/07 04:50:04;;;;;;;43.63;27.20;;;14.50;99.90;;;;;;5074355;28;20025;-71
2021/09/07 04:52:29;;;;;;;41.80;26.00;;;14.50;99.90;;;;;;5075477;28;20347;-71
2021/09/07 04:54:55;;;;;;;40.90;25.00;;;14.50;99.90;;;;;;5075148;28;20058;-70
2021/09/07 04:57:20;;;;;;;38.22;25.00;;;14.50;99.90;;;;;;5056922;28;20077;-71
2021/09/07 04:59:46;;;;;;;39.17;24.75;;;14.50;99.90;;;;;;5075296;28;20028;-70
2021/09/07 05:02:11;;;;;;;44.45;27.45;;;14.50;99.90;;;;;;5075229;28;20032;-70
2021/09/07 05:04:37;;;;;;;42.70;25.42;;;14.50;99.90;;;;;;5075194;28;20020;-70
2021/09/07 05:07:02;;;;;;;39.10;26.00;;;14.50;99.90;;;;;;5075180;28;20032;-70
2021/09/07 05:09:28;;;;;;;43.72;26.48;;;14.50;99.90;;;;;;5075100;28;20027;-70
2021/09/07 05:11:53;;;;;;;39.20;24.83;;;14.50;99.90;;;;;;5075088;28;20024;-69
2021/09/07 05:14:19;;;;;;;41.72;25.98;;;14.50;99.90;;;;;;5073555;28;20021;-70
2021/09/07 05:16:45;;;;;;;42.22;26.98;;;14.50;99.90;;;;;;5057305;28;20412;-70
2021/09/07 05:19:10;;;;;;;45.80;26.80;;;14.50;99.90;;;;;;5074922;28;20470;-70
2021/09/07 05:21:36;;;;;;;40.72;26.30;;;14.60;99.90;;;;;;5074348;28;20045;-69
2021/09/07 05:24:02;;;;;;;39.75;25.50;;;14.60;99.90;;;;;;5074868;28;20020;-69
2021/09/07 05:26:27;;;;;;;47.75;26.10;;;14.60;99.90;;;;;;5074092;28;20482;-69
2021/09/07 05:28:53;;;;;;;38.60;25.42;;;14.60;99.90;;;;;;5073287;28;20051;-70
2021/09/07 05:31:19;;;;;;;45.67;27.63;;;14.70;99.90;;;;;;5074412;28;20078;-69
2021/09/07 05:33:45;;;;;;;41.40;25.90;;;14.70;99.90;;;;;;5074385;28;20020;-70
2021/09/07 05:36:10;;;;;;;44.20;27.02;;;14.70;99.90;;;;;;5074055;28;20029;-71
2021/09/07 05:38:36;;;;;;;40.30;25.35;;;14.80;99.90;;;;;;5074549;28;20103;-70
2021/09/07 05:41:02;;;;;;;44.15;27.40;;;14.90;99.90;;;;;;5074502;28;20126;-70
2021/09/07 05:43:27;;;;;;;43.72;26.73;;;14.90;99.90;;;;;;5073794;28;20024;-70
2021/09/07 05:45:53;;;;;;;43.75;26.08;;;14.90;99.90;;;;;;5072977;28;20093;-71
2021/09/07 05:48:18;;;;;;;43.65;26.15;;;15.00;99.90;;;;;;5074378;28;20509;-71
2021/09/07 05:50:44;;;;;;;43.08;26.60;;;15.00;99.90;;;;;;5073751;28;20033;-70
2021/09/07 05:53:09;;;;;;;41.53;25.77;;;15.10;99.90;;;;;;5055857;28;20028;-69
2021/09/07 05:55:35;;;;;;;39.55;24.33;;;15.10;99.90;;;;;;5073923;28;20033;-70
2021/09/07 05:58:01;;;;;;;39.47;24.45;;;15.20;99.90;;;;;;5074235;28;20028;-70
2021/09/07 06:00:27;;;;;;;40.55;25.27;;;15.30;99.90;;;;;;5074166;28;20498;-70
2021/09/07 06:02:56;;;;;;;40.60;26.13;;;15.30;99.90;;;;;;5073773;28;20027;-70
2021/09/07 06:05:22;;;;;;;42.50;24.77;;;15.30;99.90;;;;;;5072767;28;20078;-70
2021/09/07 06:07:47;;;;;;;40.08;23.83;;;15.40;99.90;;;;;;5074000;28;20024;-71
2021/09/07 06:10:14;;;;;;;43.38;27.27;;;15.40;99.90;;;;;;5072568;28;20482;-70
2021/09/07 06:12:39;;;;;;;37.70;25.58;;;15.50;99.90;;;;;;5073823;28;20420;-71
2021/09/07 06:15:06;;;;;;;39.38;25.92;;;15.50;99.90;;;;;;5073522;28;20028;-70
2021/09/07 06:17:32;;;;;;;41.53;25.33;;;15.50;99.90;;;;;;5073576;28;20466;-70
2021/09/07 06:19:57;;;;;;;37.00;23.73;;;15.60;99.90;;;;;;5073621;28;20035;-70
2021/09/07 06:22:23;;;;;;;38.63;25.25;;;15.70;99.90;;;;;;5071734;28;20444;-70
2021/09/07 06:24:49;;;;;;;39.25;26.48;;;15.70;99.90;;;;;;5073575;28;20029;-70
2021/09/07 06:27:15;;;;;;;41.17;25.80;;;15.80;99.90;;;;;;5073881;28;20393;-70
2021/09/07 06:29:40;;;;;;;44.35;26.35;;;15.80;99.90;;;;;;5073087;28;20025;-70
2021/09/07 06:32:06;;;;;;;48.15;27.70;;;15.80;99.90;;;;;;5073746;28;20051;-70
2021/09/07 06:34:32;;;;;;;42.47;27.33;;;15.80;99.90;;;;;;5073030;28;20132;-70
2021/09/07 06:36:57;;;;;;;42.25;27.88;;;15.80;99.90;;;;;;5072187;28;20025;-70
2021/09/07 06:39:23;;;;;;;42.33;27.15;;;15.90;99.90;;;;;;5075492;28;20036;-71
2021/09/07 06:41:49;;;;;;;50.50;27.77;;;16.00;99.90;;;;;;5075948;28;20067;-71
2021/09/07 06:44:14;;;;;;;46.75;27.85;;;16.00;99.90;;;;;;5076148;28;20393;-70
2021/09/07 06:46:40;;;;;;;43.10;28.90;;;16.00;99.90;;;;;;5091343;28;20036;-70
2021/09/07 06:49:06;;;;;;;45.70;28.90;;;16.00;99.90;;;;;;5087283;28;20459;-71
2021/09/07 06:51:32;;;;;;;49.20;29.13;;;16.10;99.90;;;;;;5077544;28;20029;-70
2021/09/07 06:53:58;;;;;;;46.67;29.30;;;16.10;99.90;;;;;;5085858;28;20020;-70
2021/09/07 06:56:24;;;;;;;47.40;31.15;;;16.10;99.90;;;;;;5079133;28;20462;-71
2021/09/07 06:58:49;;;;;;;48.92;28.92;;;16.20;99.90;;;;;;5072776;28;20819;-71
2021/09/07 07:01:15;;;;;;;45.60;28.58;;;16.30;99.90;;;;;;5086557;28;20032;-71
2021/09/07 07:03:40;;;;;;;44.65;28.23;;;16.40;99.90;;;;;;5076525;28;20024;-71
2021/09/07 07:06:06;;;;;;;49.65;28.85;;;16.40;99.90;;;;;;5078892;28;20393;-70
2021/09/07 07:08:31;;;;;;;43.63;28.48;;;16.50;99.90;;;;;;5096387;28;20099;-71
2021/09/07 07:10:57;;;;;;;48.10;27.88;;;16.50;99.90;;;;;;5076340;28;20060;-70
2021/09/07 07:13:23;;;;;;;46.65;27.65;;;16.50;99.90;;;;;;5095903;28;20036;-71
2021/09/07 07:15:48;;;;;;;48.45;29.35;;;16.70;99.90;;;;;;5085191;28;20062;-71
2021/09/07 07:18:14;;;;;;;45.92;29.05;;;16.70;99.90;;;;;;5074567;28;20028;-70
2021/09/07 07:20:39;;;;;;;44.17;27.40;;;16.80;99.90;;;;;;5075925;28;20024;-71
2021/09/07 07:23:05;;;;;;;42.53;28.58;;;16.80;99.90;;;;;;5075988;28;20544;-71
2021/09/07 07:25:31;;;;;;;44.40;28.63;;;16.90;99.90;;;;;;5076300;28;20032;-70
2021/09/07 07:27:57;;;;;;;45.13;29.23;;;16.90;99.90;;;;;;5076014;28;20028;-70
2021/09/07 07:30:23;;;;;;;44.88;28.35;;;16.80;99.90;;;;;;5078447;28;20029;-71
2021/09/07 07:32:48;;;;;;;45.30;28.13;;;16.90;99.90;;;;;;5089165;28;20032;-70
2021/09/07 07:35:14;;;;;;;44.35;27.50;;;16.90;99.90;;;;;;5072592;28;20037;-71
2021/09/07 07:37:39;;;;;;;43.38;27.90;;;17.00;99.90;;;;;;5076600;28;20039;-70
2021/09/07 07:40:06;;;;;;;48.58;28.55;;;17.00;99.90;;;;;;5076441;28;20036;-70
2021/09/07 07:42:31;;;;;;;38.35;26.08;;;17.10;99.90;;;;;;5088339;28;20117;-70
2021/09/07 07:44:57;;;;;;;47.35;27.58;;;17.20;99.90;;;;;;5082529;28;20032;-69
2021/09/07 07:47:22;;;;;;;43.50;27.02;;;17.30;99.90;;;;;;5077058;28;20036;-70
2021/09/07 07:49:48;;;;;;;44.15;27.40;;;17.40;99.90;;;;;;5089622;28;20050;-70
2021/09/07 07:52:14;;;;;;;44.72;27.38;;;17.60;99.90;;;;;;5090706;28;20036;-71
2021/09/07 07:54:39;;;;;;;44.28;27.88;;;17.60;99.90;;;;;;5076546;28;20040;-70
2021/09/07 07:57:06;;;;;;;44.90;28.75;;;17.70;99.90;;;;;;5075118;28;20474;-71
2021/09/07 07:59:31;;;;;;;43.85;28.65;;;17.70;99.90;;;;;;5074783;28;20111;-71
2021/09/07 08:01:57;;;;;;;44.47;27.58;;;17.80;99.90;;;;;;5075009;28;20170;-71
2021/09/07 08:04:22;;;;;;;42.72;27.92;;;17.90;99.90;;;;;;5075583;28;20025;-71
2021/09/07 08:06:48;;;;;;;44.42;27.80;;;18.00;99.90;;;;;;5076262;28;20032;-70
2021/09/07 08:09:25;;;;;;;44.97;28.95;;;18.00;99.90;;;;;;5075347;28;20458;-71
2021/09/07 08:11:50;;;;;;;43.15;28.40;;;18.10;99.90;;;;;;5074646;28;20032;-71
2021/09/07 08:14:16;;;;;;;45.13;27.63;;;18.10;99.90;;;;;;5074437;28;20473;-70
2021/09/07 08:16:42;;;;;;;46.30;28.77;;;18.10;99.90;;;;;;5078834;28;20028;-70
2021/09/07 08:19:07;;;;;;;42.17;27.13;;;18.10;99.90;;;;;;5075109;28;20462;-70
2021/09/07 08:21:33;;;;;;;43.85;28.75;;;18.10;99.90;;;;;;5074188;28;20049;-70
2021/09/07 08:23:59;;;;;;;46.33;28.17;;;18.30;99.90;;;;;;5078784;28;20306;-71
2021/09/07 08:26:24;;;;;;;42.55;27.42;;;18.30;99.90;;;;;;5077062;28;20103;-70
2021/09/07 08:28:50;;;;;;;45.00;29.02;;;18.30;99.90;;;;;;5075299;28;20028;-70
2021/09/07 08:31:15;;;;;;;44.20;29.80;;;18.40;99.90;;;;;;5075262;28;20408;-70
2021/09/07 08:33:41;;;;;;;44.80;28.35;;;18.50;99.90;;;;;;5076252;28;20103;-71
2021/09/07 08:36:07;;;;;;;49.08;29.30;;;18.60;99.90;;;;;;5073683;28;20020;-70
2021/09/07 08:38:32;;;;;;;46.20;28.92;;;18.60;99.90;;;;;;5074629;28;20017;-71
2021/09/07 08:40:58;;;;;;;46.45;28.60;;;18.80;99.90;;;;;;5079341;28;20020;-71
2021/09/07 08:43:25;;;;;;;44.00;29.00;;;18.80;99.90;;;;;;5074561;28;20048;-71
2021/09/07 08:45:52;;;;;;;44.25;29.27;;;18.90;99.90;;;;;;5074059;28;20021;-71
2021/09/07 08:48:19;;;;;;;40.35;28.52;;;18.90;99.90;;;;;;5073552;28;20052;-70
2021/09/07 08:50:44;;;;;;;51.55;29.67;;;19.00;99.90;;;;;;5091259;28;20103;-70
2021/09/07 08:53:10;;;;;;;43.35;28.90;;;19.20;99.90;;;;;;5088090;28;20078;-70
2021/09/07 08:55:35;;;;;;;45.60;29.27;;;19.20;99.90;;;;;;5078810;28;20428;-71
2021/09/07 08:58:01;;;;;;;45.22;28.95;;;19.20;99.90;;;;;;5072932;28;20048;-71
2021/09/07 09:00:30;;;;;;;39.95;27.33;;;19.50;99.90;;;;;;5074095;28;20039;-71
2021/09/07 09:02:58;;;;;;;39.90;26.70;;;19.60;99.90;;;;;;5071915;28;20027;-70
2021/09/07 09:05:27;;;;;;;45.97;28.73;;;19.70;99.90;;;;;;5081627;28;20538;-70
2021/09/07 09:07:53;;;;;;;43.95;27.83;;;19.80;99.90;;;;;;5077316;28;20117;-70
2021/09/07 09:10:20;;;;;;;40.53;27.27;;;20.00;99.90;;;;;;5074268;28;20052;-70
2021/09/07 09:12:46;;;;;;;44.58;27.65;;;20.20;99.90;;;;;;5073994;28;20032;-70
2021/09/07 09:15:16;;;;;;;39.50;25.83;;;20.30;99.90;;;;;;5073705;28;20093;-70
2021/09/07 09:17:42;;;;;;;38.25;26.55;;;20.20;99.90;;;;;;5078906;28;20032;-71
2021/09/07 09:20:14;;;;;;;40.35;25.92;;;20.30;99.90;;;;;;5073532;28;20436;-71
2021/09/07 09:22:49;;;;;;;37.47;24.00;;;20.60;99.90;;;;;;5073551;28;20124;-71
2021/09/07 09:25:29;;;;;;;36.10;25.63;;;20.70;99.90;;;;;;5078153;28;20082;-70
2021/09/07 09:30:39;;;;;;;39.67;23.95;;;20.50;99.90;;;;;;5086440;27;20156;-70
2021/09/07 09:33:06;;;;;;;36.28;22.88;;;20.70;99.90;;;;;;5069164;28;20440;-68
2021/09/07 09:35:43;;;;;;;33.28;22.90;;;21.30;99.90;;;;;;5069302;28;20024;-70
2021/09/07 09:38:08;;;;;;;34.10;21.63;;;21.60;99.90;;;;;;5069543;28;20016;-70
2021/09/07 09:40:34;;;;;;;35.22;21.85;;;21.60;99.90;;;;;;5069233;28;20360;-69
2021/09/07 09:43:29;;;;;;;31.88;21.92;;;22.00;99.90;;;;;;5069500;28;20066;-70
2021/09/07 09:45:55;;;;;;;37.00;22.92;;;22.40;99.90;;;;;;5069825;28;20470;-69
2021/09/07 09:48:24;;;;;;;34.13;22.92;;;22.30;99.90;;;;;;5069477;28;20017;-70
2021/09/07 09:50:51;;;;;;;30.65;20.73;;;22.80;99.90;;;;;;5065866;28;20074;-69
2021/09/07 09:53:18;;;;;;;30.65;20.77;;;22.90;99.90;;;;;;5069588;28;20017;-70
2021/09/07 09:55:45;;;;;;;30.35;20.33;;;23.30;99.90;;;;;;5069671;28;20054;-69
2021/09/07 09:58:11;;;;;;;24.27;18.38;;;23.50;99.90;;;;;;5067665;28;20420;-69
2021/09/07 10:00:37;;;;;;;28.73;17.88;;;23.70;99.90;;;;;;5068174;28;20053;-69
2021/09/07 10:03:09;;;;;;;24.77;17.10;;;23.80;99.90;;;;;;5069375;28;20433;-69
2021/09/07 10:05:35;;;;;;;23.52;16.60;;;24.20;99.90;;;;;;5068075;28;20021;-70
2021/09/07 10:08:01;;;;;;;22.80;16.52;;;24.50;99.90;;;;;;5069029;28;20063;-71
2021/09/07 10:10:27;;;;;;;21.17;15.25;;;24.40;99.90;;;;;;5069210;28;20035;-70
2021/09/07 10:12:57;;;;;;;22.55;14.68;;;24.60;99.90;;;;;;5067967;28;20112;-70
2021/09/07 10:15:29;;;;;;;19.80;14.68;;;24.30;99.90;;;;;;5069195;28;20025;-71
2021/09/07 10:23:50;;;;;;;22.23;14.80;;;25.50;99.90;;;;;;5070218;28;20063;-71
2021/09/07 10:26:17;;;;;;;20.13;13.90;;;25.40;99.90;;;;;;5069289;28;20028;-70
2021/09/07 10:28:45;;;;;;;20.17;13.00;;;26.20;99.90;;;;;;5070145;28;20079;-70
2021/09/07 10:31:17;;;;;;;16.00;10.95;;;26.30;99.90;;;;;;5070556;28;20040;-71
2021/09/07 10:33:45;;;;;;;17.08;12.00;;;26.00;99.90;;;;;;5068912;28;20056;-70
2021/09/07 10:36:15;;;;;;;20.55;12.50;;;26.20;99.90;;;;;;5069273;28;20024;-70
2021/09/07 10:38:47;;;;;;;17.40;12.43;;;26.40;99.90;;;;;;5058044;28;20057;-70
2021/09/07 10:41:35;;;;;;;14.25;11.27;;;26.50;99.90;;;;;;5068637;28;20488;-70
2021/09/07 10:44:09;;;;;;;14.45;10.70;;;26.40;99.90;;;;;;5066948;28;20108;-70
2021/09/07 10:49:24;;;;;;;15.40;10.30;;;26.30;99.90;;;;;;5102337;27;20474;-69
2021/09/07 10:52:08;;;;;;;15.63;11.85;;;26.20;99.90;;;;;;5106735;28;20495;-69
2021/09/07 10:54:43;;;;;;;16.90;12.48;;;26.50;99.90;;;;;;5103658;28;20316;-69
2021/09/07 10:57:09;;;;;;;18.15;11.55;;;26.90;99.90;;;;;;5089024;28;20060;-69
2021/09/07 10:59:51;;;;;;;13.65;10.90;;;26.30;99.90;;;;;;5090909;28;20382;-69
2021/09/07 11:02:38;;;;;;;15.80;10.35;;;26.20;99.90;;;;;;5105713;28;20042;-69
2021/09/07 11:05:05;;;;;;;19.17;11.35;;;26.20;99.90;;;;;;5109658;28;20384;-71
2021/09/07 11:07:45;;;;;;;14.30;11.38;;;26.30;99.90;;;;;;5093229;28;20488;-70
2021/09/07 11:13:01;;;;;;;15.50;10.90;;;26.10;99.90;;;;;;5091194;27;20368;-69
2021/09/07 11:15:33;;;;;;;16.23;12.00;;;25.60;99.90;;;;;;5091325;28;20028;-69
2021/09/07 11:18:03;;;;;;;15.68;11.88;;;25.70;99.90;;;;;;5089877;28;20016;-69
2021/09/07 11:20:37;;;;;;;15.27;12.07;;;25.80;99.90;;;;;;5089605;28;20082;-69
2021/09/07 11:23:24;;;;;;;17.65;12.80;;;25.80;99.90;;;;;;5088599;28;20032;-68
2021/09/07 11:26:00;;;;;;;20.33;12.70;;;25.80;99.90;;;;;;5088486;28;20024;-70
2021/09/07 11:28:25;;;;;;;17.80;13.60;;;25.80;99.90;;;;;;5089208;28;20017;-70
2021/09/07 11:30:53;;;;;;;18.02;13.25;;;25.70;99.90;;;;;;5089388;28;20032;-70
2021/09/07 11:33:22;;;;;;;15.85;12.10;;;25.40;99.90;;;;;;5089603;28;20107;-69
2021/09/07 11:35:51;;;;;;;17.70;12.10;;;25.70;99.90;;;;;;5088449;28;20023;-70
2021/09/07 11:38:19;;;;;;;14.10;11.18;;;25.80;99.90;;;;;;5088706;28;20028;-70
2021/09/07 11:40:48;;;;;;;16.33;12.65;;;25.70;99.90;;;;;;5089924;28;20023;-70
2021/09/07 11:43:25;;;;;;;17.02;12.02;;;25.60;99.10;;;;;;5089542;28;20024;-71
2021/09/07 11:46:22;;;;;;;15.27;12.32;;;25.70;99.20;;;;;;5089672;28;20032;-70
2021/09/07 11:48:52;;;;;;;15.35;11.60;;;25.70;99.40;;;;;;5076837;28;20381;-70
2021/09/07 11:51:25;;;;;;;17.02;11.15;;;25.70;99.90;;;;;;5088010;28;20070;-70
2021/09/07 11:53:57;;;;;;;19.65;14.18;;;25.80;99.90;;;;;;5089302;28;20493;-70
2021/09/07 11:56:24;;;;;;;15.65;12.25;;;25.60;97.40;;;;;;5088628;28;20390;-70
2021/09/07 11:58:50;;;;;;;15.20;11.55;;;25.80;99.30;;;;;;5088308;28;20024;-70
2021/09/07 12:01:22;;;;;;;16.05;11.60;;;26.00;99.90;;;;;;5089403;28;20040;-70
2021/09/07 12:03:53;;;;;;;15.10;11.20;;;25.60;99.90;;;;;;5089753;28;20028;-70
2021/09/07 12:06:30;;;;;;;15.93;11.23;;;25.40;99.90;;;;;;5088856;28;20028;-70
2021/09/07 12:08:56;;;;;;;14.85;11.18;;;25.80;99.90;;;;;;5088974;28;20062;-70
2021/09/07 12:24:17;;;;;;;14.00;11.05;;;25.80;99.90;;;;;;5094037;28;20028;-71
2021/09/07 12:26:43;;;;;;;17.05;11.20;;;25.80;99.40;;;;;;5106416;28;20036;-70
2021/09/07 12:29:11;;;;;;;14.35;10.75;;;25.50;99.80;;;;;;5110218;28;20023;-70
2021/09/07 12:31:37;;;;;;;14.65;10.40;;;25.70;99.60;;;;;;5108477;28;20031;-70
2021/09/07 12:34:02;;;;;;;15.10;11.77;;;25.80;99.90;;;;;;5104665;28;20024;-70
2021/09/07 12:36:43;;;;;;;16.00;11.35;;;25.30;99.70;;;;;;5108968;28;20027;-70
2021/09/07 12:39:09;;;;;;;15.00;10.93;;;25.30;99.90;;;;;;5099283;28;20073;-71
2021/09/07 12:41:34;;;;;;;14.15;11.38;;;25.40;99.90;;;;;;5107061;28;20447;-70
2021/09/07 12:44:00;;;;;;;16.77;11.18;;;25.60;99.90;;;;;;5109577;28;20031;-71
2021/09/07 12:46:25;;;;;;;13.90;10.98;;;25.70;99.90;;;;;;5104214;28;20062;-70
2021/09/07 12:48:51;;;;;;;13.65;10.90;;;25.80;99.90;;;;;;5108709;28;20445;-71
2021/09/07 12:51:19;;;;;;;13.27;9.88;;;26.00;99.90;;;;;;5110067;28;20027;-71
2021/09/07 12:53:45;;;;;;;14.32;10.18;;;26.00;99.80;;;;;;5108723;28;20419;-70